sensor_id;sensor_type;location;lat;lon;timestamp;temperature;humidity
10644;DHT22;5370;50.132;8.626;2023-02-01T00:02:04;7.10;94.20
10644;DHT22;5370;50.132;8.626;2023-02-01T00:04:29;7.20;94.20
10644;DHT22;5370;50.132;8.626;2023-02-01T00:06:55;7.20;94.50
10644;DHT22;5370;50.132;8.626;2023-02-01T00:09:20;7.20;94.20
10644;DHT22;5370;50.132;8.626;2023-02-01T00:11:46;7.20;94.10
10644;DHT22;5370;50.132;8.626;2023-02-01T00:14:12;7.30;94.10
10644;DHT22;5370;50.132;8.626;2023-02-01T00:16:37;7.30;94.00
10644;DHT22;5370;50.132;8.626;2023-02-01T00:19:10;7.30;94.00
10644;DHT22;5370;50.132;8.626;2023-02-01T00:21:36;7.40;94.00
10644;DHT22;5370;50.132;8.626;2023-02-01T00:24:02;7.30;93.90
10644;DHT22;5370;50.132;8.626;2023-02-01T00:26:37;7.40;93.90
10644;DHT22;5370;50.132;8.626;2023-02-01T00:29:06;7.40;93.80
10644;DHT22;5370;50.132;8.626;2023-02-01T00:31:32;7.40;93.70
10644;DHT22;5370;50.132;8.626;2023-02-01T00:33:58;7.40;93.60
10644;DHT22;5370;50.132;8.626;2023-02-01T00:36:24;7.40;93.60
10644;DHT22;5370;50.132;8.626;2023-02-01T00:38:53;7.40;93.50
10644;DHT22;5370;50.132;8.626;2023-02-01T00:41:20;7.40;93.50
10644;DHT22;5370;50.132;8.626;2023-02-01T00:43:46;7.40;93.50
10644;DHT22;5370;50.132;8.626;2023-02-01T00:46:13;7.40;93.50
10644;DHT22;5370;50.132;8.626;2023-02-01T00:48:39;7.40;93.40
10644;DHT22;5370;50.132;8.626;2023-02-01T00:51:08;7.40;93.40
10644;DHT22;5370;50.132;8.626;2023-02-01T00:53:34;7.40;93.30
10644;DHT22;5370;50.132;8.626;2023-02-01T00:56:00;7.30;93.30
10644;DHT22;5370;50.132;8.626;2023-02-01T00:58:26;7.30;93.30
10644;DHT22;5370;50.132;8.626;2023-02-01T01:01:03;7.30;93.30
10644;DHT22;5370;50.132;8.626;2023-02-01T01:03:29;7.30;93.30
10644;DHT22;5370;50.132;8.626;2023-02-01T01:05:59;7.30;93.30
10644;DHT22;5370;50.132;8.626;2023-02-01T01:08:24;7.30;93.30
10644;DHT22;5370;50.132;8.626;2023-02-01T01:10:50;7.30;93.30
10644;DHT22;5370;50.132;8.626;2023-02-01T01:13:15;7.30;93.40
10644;DHT22;5370;50.132;8.626;2023-02-01T01:15:41;7.30;93.40
10644;DHT22;5370;50.132;8.626;2023-02-01T01:18:07;7.30;93.30
10644;DHT22;5370;50.132;8.626;2023-02-01T01:20:38;7.40;93.40
10644;DHT22;5370;50.132;8.626;2023-02-01T01:23:06;7.40;93.40
10644;DHT22;5370;50.132;8.626;2023-02-01T01:25:37;7.40;93.40
10644;DHT22;5370;50.132;8.626;2023-02-01T01:28:03;7.40;93.40
10644;DHT22;5370;50.132;8.626;2023-02-01T01:30:28;7.40;93.40
10644;DHT22;5370;50.132;8.626;2023-02-01T01:32:54;7.40;93.40
10644;DHT22;5370;50.132;8.626;2023-02-01T01:35:19;7.40;93.40
10644;DHT22;5370;50.132;8.626;2023-02-01T01:37:45;7.40;93.30
10644;DHT22;5370;50.132;8.626;2023-02-01T01:40:11;7.40;93.30
10644;DHT22;5370;50.132;8.626;2023-02-01T01:42:41;7.40;93.30
10644;DHT22;5370;50.132;8.626;2023-02-01T01:45:20;7.40;93.30
10644;DHT22;5370;50.132;8.626;2023-02-01T01:47:49;7.50;93.30
10644;DHT22;5370;50.132;8.626;2023-02-01T01:50:18;7.40;93.20
10644;DHT22;5370;50.132;8.626;2023-02-01T01:52:46;7.50;93.30
10644;DHT22;5370;50.132;8.626;2023-02-01T01:55:15;7.50;93.30
10644;DHT22;5370;50.132;8.626;2023-02-01T01:57:44;7.50;93.30
10644;DHT22;5370;50.132;8.626;2023-02-01T02:00:14;7.50;93.30
10644;DHT22;5370;50.132;8.626;2023-02-01T02:02:43;7.50;93.20
10644;DHT22;5370;50.132;8.626;2023-02-01T02:05:10;7.50;93.20
10644;DHT22;5370;50.132;8.626;2023-02-01T02:07:39;7.50;93.20
10644;DHT22;5370;50.132;8.626;2023-02-01T02:10:08;7.60;93.20
10644;DHT22;5370;50.132;8.626;2023-02-01T02:12:38;7.50;93.10
10644;DHT22;5370;50.132;8.626;2023-02-01T02:15:06;7.50;93.10
10644;DHT22;5370;50.132;8.626;2023-02-01T02:18:06;7.50;93.10
10644;DHT22;5370;50.132;8.626;2023-02-01T02:31:35;7.60;93.30
10644;DHT22;5370;50.132;8.626;2023-02-01T02:39:50;7.50;93.30
10644;DHT22;5370;50.132;8.626;2023-02-01T02:48:22;7.50;93.30
10644;DHT22;5370;50.132;8.626;2023-02-01T02:51:04;7.50;93.40
10644;DHT22;5370;50.132;8.626;2023-02-01T02:53:56;7.50;93.50
10644;DHT22;5370;50.132;8.626;2023-02-01T02:56:42;7.50;93.50
10644;DHT22;5370;50.132;8.626;2023-02-01T02:59:28;7.50;93.60
10644;DHT22;5370;50.132;8.626;2023-02-01T03:02:13;7.50;93.60
10644;DHT22;5370;50.132;8.626;2023-02-01T03:04:58;7.50;93.70
10644;DHT22;5370;50.132;8.626;2023-02-01T03:13:25;7.50;93.90
10644;DHT22;5370;50.132;8.626;2023-02-01T03:16:07;7.40;94.00
10644;DHT22;5370;50.132;8.626;2023-02-01T03:18:51;7.40;94.10
10644;DHT22;5370;50.132;8.626;2023-02-01T03:21:28;7.50;94.20
10644;DHT22;5370;50.132;8.626;2023-02-01T03:24:00;7.40;94.20
10644;DHT22;5370;50.132;8.626;2023-02-01T03:26:30;7.50;94.20
10644;DHT22;5370;50.132;8.626;2023-02-01T03:29:00;7.50;94.30
10644;DHT22;5370;50.132;8.626;2023-02-01T03:31:28;7.50;94.30
10644;DHT22;5370;50.132;8.626;2023-02-01T03:33:54;7.50;94.40
10644;DHT22;5370;50.132;8.626;2023-02-01T03:36:36;7.50;94.40
10644;DHT22;5370;50.132;8.626;2023-02-01T03:39:32;7.50;94.50
10644;DHT22;5370;50.132;8.626;2023-02-01T03:42:02;7.50;94.50
10644;DHT22;5370;50.132;8.626;2023-02-01T03:44:53;7.50;94.50
10644;DHT22;5370;50.132;8.626;2023-02-01T03:47:26;7.50;94.50
10644;DHT22;5370;50.132;8.626;2023-02-01T03:52:28;7.40;94.50
10644;DHT22;5370;50.132;8.626;2023-02-01T03:54:55;7.50;94.60
10644;DHT22;5370;50.132;8.626;2023-02-01T03:57:26;7.50;94.60
10644;DHT22;5370;50.132;8.626;2023-02-01T03:59:52;7.50;94.60
10644;DHT22;5370;50.132;8.626;2023-02-01T04:02:18;7.50;94.60
10644;DHT22;5370;50.132;8.626;2023-02-01T04:04:43;7.50;94.60
10644;DHT22;5370;50.132;8.626;2023-02-01T04:07:09;7.50;94.60
10644;DHT22;5370;50.132;8.626;2023-02-01T04:09:35;7.50;94.70
10644;DHT22;5370;50.132;8.626;2023-02-01T04:12:00;7.50;94.70
10644;DHT22;5370;50.132;8.626;2023-02-01T04:14:26;7.50;94.70
10644;DHT22;5370;50.132;8.626;2023-02-01T04:16:51;7.60;94.80
10644;DHT22;5370;50.132;8.626;2023-02-01T04:19:17;7.60;94.80
10644;DHT22;5370;50.132;8.626;2023-02-01T04:21:42;7.60;94.70
10644;DHT22;5370;50.132;8.626;2023-02-01T04:24:08;7.60;94.70
10644;DHT22;5370;50.132;8.626;2023-02-01T04:26:34;7.60;94.70
10644;DHT22;5370;50.132;8.626;2023-02-01T04:28:59;7.60;94.70
10644;DHT22;5370;50.132;8.626;2023-02-01T04:31:25;7.60;94.70
10644;DHT22;5370;50.132;8.626;2023-02-01T04:33:55;7.60;94.70
10644;DHT22;5370;50.132;8.626;2023-02-01T04:36:23;7.60;94.70
10644;DHT22;5370;50.132;8.626;2023-02-01T04:38:50;7.60;94.90
10644;DHT22;5370;50.132;8.626;2023-02-01T04:41:15;7.60;94.70
10644;DHT22;5370;50.132;8.626;2023-02-01T04:43:45;7.60;94.70
10644;DHT22;5370;50.132;8.626;2023-02-01T04:46:11;7.50;94.70
10644;DHT22;5370;50.132;8.626;2023-02-01T04:48:36;7.50;94.70
10644;DHT22;5370;50.132;8.626;2023-02-01T04:51:02;7.50;94.80
10644;DHT22;5370;50.132;8.626;2023-02-01T04:53:27;7.40;94.80
10644;DHT22;5370;50.132;8.626;2023-02-01T04:55:53;7.40;94.80
10644;DHT22;5370;50.132;8.626;2023-02-01T04:58:19;7.40;94.80
10644;DHT22;5370;50.132;8.626;2023-02-01T05:00:44;7.40;94.90
10644;DHT22;5370;50.132;8.626;2023-02-01T05:03:10;7.40;94.90
10644;DHT22;5370;50.132;8.626;2023-02-01T05:05:36;7.40;95.00
10644;DHT22;5370;50.132;8.626;2023-02-01T05:08:01;7.40;95.00
10644;DHT22;5370;50.132;8.626;2023-02-01T05:10:27;7.40;95.00
10644;DHT22;5370;50.132;8.626;2023-02-01T05:12:52;7.40;95.00
10644;DHT22;5370;50.132;8.626;2023-02-01T05:15:36;7.40;95.00
10644;DHT22;5370;50.132;8.626;2023-02-01T05:18:02;7.30;95.00
10644;DHT22;5370;50.132;8.626;2023-02-01T05:20:28;7.30;95.00
10644;DHT22;5370;50.132;8.626;2023-02-01T05:22:53;7.30;95.00
10644;DHT22;5370;50.132;8.626;2023-02-01T05:25:19;7.30;95.10
10644;DHT22;5370;50.132;8.626;2023-02-01T05:27:44;7.30;95.10
10644;DHT22;5370;50.132;8.626;2023-02-01T05:30:10;7.30;95.20
10644;DHT22;5370;50.132;8.626;2023-02-01T05:32:36;7.30;95.20
10644;DHT22;5370;50.132;8.626;2023-02-01T05:35:02;7.30;95.20
10644;DHT22;5370;50.132;8.626;2023-02-01T05:37:27;7.30;95.30
10644;DHT22;5370;50.132;8.626;2023-02-01T05:39:53;7.30;95.30
10644;DHT22;5370;50.132;8.626;2023-02-01T05:42:18;7.30;95.20
10644;DHT22;5370;50.132;8.626;2023-02-01T05:44:44;7.30;95.20
10644;DHT22;5370;50.132;8.626;2023-02-01T05:47:10;7.30;95.10
10644;DHT22;5370;50.132;8.626;2023-02-01T05:49:35;7.40;95.10
10644;DHT22;5370;50.132;8.626;2023-02-01T05:52:01;7.30;95.10
10644;DHT22;5370;50.132;8.626;2023-02-01T05:54:27;7.30;95.00
10644;DHT22;5370;50.132;8.626;2023-02-01T05:56:52;7.30;95.00
10644;DHT22;5370;50.132;8.626;2023-02-01T05:59:18;7.30;94.80
10644;DHT22;5370;50.132;8.626;2023-02-01T06:01:43;7.20;94.70
10644;DHT22;5370;50.132;8.626;2023-02-01T06:04:09;7.20;94.50
10644;DHT22;5370;50.132;8.626;2023-02-01T06:06:34;7.10;94.30
10644;DHT22;5370;50.132;8.626;2023-02-01T06:09:02;7.00;94.20
10644;DHT22;5370;50.132;8.626;2023-02-01T06:11:28;6.90;94.20
10644;DHT22;5370;50.132;8.626;2023-02-01T06:13:53;6.90;94.30
10644;DHT22;5370;50.132;8.626;2023-02-01T06:16:21;6.80;94.40
10644;DHT22;5370;50.132;8.626;2023-02-01T06:18:46;6.80;94.40
10644;DHT22;5370;50.132;8.626;2023-02-01T06:21:12;6.80;94.40
10644;DHT22;5370;50.132;8.626;2023-02-01T06:23:39;6.80;94.40
10644;DHT22;5370;50.132;8.626;2023-02-01T06:26:06;6.80;94.30
10644;DHT22;5370;50.132;8.626;2023-02-01T06:28:35;6.80;94.30
10644;DHT22;5370;50.132;8.626;2023-02-01T06:31:07;6.80;94.30
10644;DHT22;5370;50.132;8.626;2023-02-01T06:33:33;6.80;94.30
10644;DHT22;5370;50.132;8.626;2023-02-01T06:36:00;6.80;94.30
10644;DHT22;5370;50.132;8.626;2023-02-01T06:38:26;6.80;94.10
10644;DHT22;5370;50.132;8.626;2023-02-01T06:40:53;6.70;93.90
10644;DHT22;5370;50.132;8.626;2023-02-01T06:43:20;6.70;93.80
10644;DHT22;5370;50.132;8.626;2023-02-01T06:45:46;6.60;93.60
10644;DHT22;5370;50.132;8.626;2023-02-01T06:48:11;6.50;93.50
10644;DHT22;5370;50.132;8.626;2023-02-01T06:50:37;6.50;93.50
10644;DHT22;5370;50.132;8.626;2023-02-01T06:53:02;6.50;93.40
10644;DHT22;5370;50.132;8.626;2023-02-01T06:55:28;6.40;93.40
10644;DHT22;5370;50.132;8.626;2023-02-01T06:57:54;6.40;93.40
10644;DHT22;5370;50.132;8.626;2023-02-01T07:00:21;6.30;93.40
10644;DHT22;5370;50.132;8.626;2023-02-01T07:02:47;6.30;93.40
10644;DHT22;5370;50.132;8.626;2023-02-01T07:05:12;6.30;93.40
10644;DHT22;5370;50.132;8.626;2023-02-01T07:07:38;6.20;93.40
10644;DHT22;5370;50.132;8.626;2023-02-01T07:10:04;6.20;93.40
10644;DHT22;5370;50.132;8.626;2023-02-01T07:12:29;6.20;93.50
10644;DHT22;5370;50.132;8.626;2023-02-01T07:14:55;6.30;93.50
10644;DHT22;5370;50.132;8.626;2023-02-01T07:17:22;6.30;93.50
10644;DHT22;5370;50.132;8.626;2023-02-01T07:19:47;6.30;93.50
10644;DHT22;5370;50.132;8.626;2023-02-01T07:22:13;6.40;93.50
10644;DHT22;5370;50.132;8.626;2023-02-01T07:24:41;6.40;93.40
10644;DHT22;5370;50.132;8.626;2023-02-01T07:27:06;6.40;93.20
10644;DHT22;5370;50.132;8.626;2023-02-01T07:29:32;6.50;93.20
10644;DHT22;5370;50.132;8.626;2023-02-01T07:31:57;6.50;93.10
10644;DHT22;5370;50.132;8.626;2023-02-01T07:34:23;6.50;93.00
10644;DHT22;5370;50.132;8.626;2023-02-01T07:36:49;6.60;92.90
10644;DHT22;5370;50.132;8.626;2023-02-01T07:39:14;6.70;92.70
10644;DHT22;5370;50.132;8.626;2023-02-01T07:41:40;6.70;92.60
10644;DHT22;5370;50.132;8.626;2023-02-01T07:44:05;6.70;92.50
10644;DHT22;5370;50.132;8.626;2023-02-01T07:46:31;6.80;92.40
10644;DHT22;5370;50.132;8.626;2023-02-01T07:48:56;6.80;92.20
10644;DHT22;5370;50.132;8.626;2023-02-01T07:51:22;6.90;92.00
10644;DHT22;5370;50.132;8.626;2023-02-01T07:53:48;6.90;91.80
10644;DHT22;5370;50.132;8.626;2023-02-01T07:56:18;7.00;91.70
10644;DHT22;5370;50.132;8.626;2023-02-01T07:58:52;7.00;91.80
10644;DHT22;5370;50.132;8.626;2023-02-01T08:01:20;7.00;91.20
10644;DHT22;5370;50.132;8.626;2023-02-01T08:03:52;7.10;91.10
10644;DHT22;5370;50.132;8.626;2023-02-01T08:06:18;7.20;91.00
10644;DHT22;5370;50.132;8.626;2023-02-01T08:08:45;7.20;90.90
10644;DHT22;5370;50.132;8.626;2023-02-01T08:11:12;7.20;90.70
10644;DHT22;5370;50.132;8.626;2023-02-01T08:13:38;7.30;90.60
10644;DHT22;5370;50.132;8.626;2023-02-01T08:16:06;7.30;90.40
10644;DHT22;5370;50.132;8.626;2023-02-01T08:18:32;7.40;90.20
10644;DHT22;5370;50.132;8.626;2023-02-01T08:21:06;7.40;90.00
10644;DHT22;5370;50.132;8.626;2023-02-01T08:23:33;7.50;90.00
10644;DHT22;5370;50.132;8.626;2023-02-01T08:26:09;7.50;89.50
10644;DHT22;5370;50.132;8.626;2023-02-01T08:28:35;7.60;89.20
10644;DHT22;5370;50.132;8.626;2023-02-01T08:31:06;7.70;88.90
10644;DHT22;5370;50.132;8.626;2023-02-01T08:33:32;7.70;88.30
10644;DHT22;5370;50.132;8.626;2023-02-01T08:36:00;7.70;87.80
10644;DHT22;5370;50.132;8.626;2023-02-01T08:38:26;7.80;87.40
10644;DHT22;5370;50.132;8.626;2023-02-01T08:40:51;7.80;87.00
10644;DHT22;5370;50.132;8.626;2023-02-01T08:43:18;7.80;86.60
10644;DHT22;5370;50.132;8.626;2023-02-01T08:45:44;7.90;86.50
10644;DHT22;5370;50.132;8.626;2023-02-01T08:48:09;7.90;86.00
10644;DHT22;5370;50.132;8.626;2023-02-01T08:50:35;7.90;85.50
10644;DHT22;5370;50.132;8.626;2023-02-01T08:53:00;7.90;85.20
10644;DHT22;5370;50.132;8.626;2023-02-01T08:55:26;8.00;84.90
10644;DHT22;5370;50.132;8.626;2023-02-01T08:57:51;8.00;84.50
10644;DHT22;5370;50.132;8.626;2023-02-01T09:00:17;8.00;83.90
10644;DHT22;5370;50.132;8.626;2023-02-01T09:02:43;8.00;83.60
10644;DHT22;5370;50.132;8.626;2023-02-01T09:05:09;8.00;83.40
10644;DHT22;5370;50.132;8.626;2023-02-01T09:07:36;8.00;82.80
10644;DHT22;5370;50.132;8.626;2023-02-01T09:10:02;8.00;82.30
10644;DHT22;5370;50.132;8.626;2023-02-01T09:12:29;8.00;81.80
10644;DHT22;5370;50.132;8.626;2023-02-01T09:14:56;8.10;81.70
10644;DHT22;5370;50.132;8.626;2023-02-01T09:17:28;8.10;81.20
10644;DHT22;5370;50.132;8.626;2023-02-01T09:19:54;8.10;80.70
10644;DHT22;5370;50.132;8.626;2023-02-01T09:22:20;8.10;80.40
10644;DHT22;5370;50.132;8.626;2023-02-01T09:24:46;8.10;80.30
10644;DHT22;5370;50.132;8.626;2023-02-01T09:27:11;8.10;79.90
10644;DHT22;5370;50.132;8.626;2023-02-01T09:29:37;8.20;79.70
10644;DHT22;5370;50.132;8.626;2023-02-01T09:32:02;8.20;79.60
10644;DHT22;5370;50.132;8.626;2023-02-01T09:34:28;8.20;78.90
10644;DHT22;5370;50.132;8.626;2023-02-01T09:36:53;8.20;78.30
10644;DHT22;5370;50.132;8.626;2023-02-01T09:39:19;8.20;78.30
10644;DHT22;5370;50.132;8.626;2023-02-01T09:46:57;8.30;77.10
10644;DHT22;5370;50.132;8.626;2023-02-01T09:49:30;8.30;77.70
10644;DHT22;5370;50.132;8.626;2023-02-01T09:51:57;8.40;76.80
10644;DHT22;5370;50.132;8.626;2023-02-01T09:54:26;8.40;76.80
10644;DHT22;5370;50.132;8.626;2023-02-01T09:56:59;8.40;76.40
10644;DHT22;5370;50.132;8.626;2023-02-01T09:59:42;8.40;76.80
10644;DHT22;5370;50.132;8.626;2023-02-01T10:02:22;8.40;75.70
10644;DHT22;5370;50.132;8.626;2023-02-01T10:04:49;8.50;75.30
10644;DHT22;5370;50.132;8.626;2023-02-01T10:12:45;8.50;74.20
10644;DHT22;5370;50.132;8.626;2023-02-01T10:24:08;8.60;73.30
10644;DHT22;5370;50.132;8.626;2023-02-01T10:26:42;8.70;73.00
10644;DHT22;5370;50.132;8.626;2023-02-01T10:29:16;8.70;72.90
10644;DHT22;5370;50.132;8.626;2023-02-01T10:31:44;8.80;72.80
10644;DHT22;5370;50.132;8.626;2023-02-01T10:34:27;8.80;72.20
10644;DHT22;5370;50.132;8.626;2023-02-01T10:39:37;9.00;71.50
10644;DHT22;5370;50.132;8.626;2023-02-01T10:42:02;9.00;71.00
10644;DHT22;5370;50.132;8.626;2023-02-01T10:44:30;9.10;71.10
10644;DHT22;5370;50.132;8.626;2023-02-01T10:46:56;9.10;70.20
10644;DHT22;5370;50.132;8.626;2023-02-01T10:49:58;9.10;70.10
10644;DHT22;5370;50.132;8.626;2023-02-01T10:52:45;9.20;70.00
10644;DHT22;5370;50.132;8.626;2023-02-01T10:55:37;9.10;69.60
10644;DHT22;5370;50.132;8.626;2023-02-01T10:58:32;9.10;69.20
10644;DHT22;5370;50.132;8.626;2023-02-01T11:01:03;9.10;68.90
10644;DHT22;5370;50.132;8.626;2023-02-01T11:03:45;9.10;69.00
10644;DHT22;5370;50.132;8.626;2023-02-01T11:06:26;9.10;68.80
10644;DHT22;5370;50.132;8.626;2023-02-01T11:09:09;9.10;68.90
10644;DHT22;5370;50.132;8.626;2023-02-01T11:11:54;9.10;68.70
10644;DHT22;5370;50.132;8.626;2023-02-01T11:14:30;9.10;68.60
10644;DHT22;5370;50.132;8.626;2023-02-01T11:16:59;9.10;68.30
10644;DHT22;5370;50.132;8.626;2023-02-01T11:19:26;9.10;68.10
10644;DHT22;5370;50.132;8.626;2023-02-01T11:21:54;9.10;68.10
10644;DHT22;5370;50.132;8.626;2023-02-01T11:24:28;9.10;67.90
10644;DHT22;5370;50.132;8.626;2023-02-01T11:27:00;9.10;68.00
10644;DHT22;5370;50.132;8.626;2023-02-01T11:29:30;9.10;68.00
10644;DHT22;5370;50.132;8.626;2023-02-01T11:31:59;9.10;68.00
10644;DHT22;5370;50.132;8.626;2023-02-01T11:35:01;9.10;68.00
10644;DHT22;5370;50.132;8.626;2023-02-01T11:37:26;9.10;68.10
10644;DHT22;5370;50.132;8.626;2023-02-01T11:45:30;9.30;67.80
10644;DHT22;5370;50.132;8.626;2023-02-01T11:47:58;9.30;67.60
10644;DHT22;5370;50.132;8.626;2023-02-01T11:55:38;9.40;67.10
10644;DHT22;5370;50.132;8.626;2023-02-01T12:04:04;9.60;66.00
10644;DHT22;5370;50.132;8.626;2023-02-01T12:14:28;9.60;65.70
10644;DHT22;5370;50.132;8.626;2023-02-01T12:25:26;9.60;65.50
10644;DHT22;5370;50.132;8.626;2023-02-01T12:28:21;9.70;65.60
10644;DHT22;5370;50.132;8.626;2023-02-01T12:36:27;9.70;65.00
10644;DHT22;5370;50.132;8.626;2023-02-01T12:39:04;9.70;64.90
10644;DHT22;5370;50.132;8.626;2023-02-01T12:41:50;9.70;64.80
10644;DHT22;5370;50.132;8.626;2023-02-01T12:44:31;9.80;65.00
10644;DHT22;5370;50.132;8.626;2023-02-01T12:49:58;9.80;64.70
10644;DHT22;5370;50.132;8.626;2023-02-01T12:52:28;9.80;64.40
10644;DHT22;5370;50.132;8.626;2023-02-01T12:55:20;9.80;64.40
10644;DHT22;5370;50.132;8.626;2023-02-01T12:57:59;9.80;64.40
10644;DHT22;5370;50.132;8.626;2023-02-01T13:06:47;9.70;64.60
10644;DHT22;5370;50.132;8.626;2023-02-01T13:12:00;9.70;64.60
10644;DHT22;5370;50.132;8.626;2023-02-01T13:17:20;9.60;64.40
10644;DHT22;5370;50.132;8.626;2023-02-01T13:20:03;9.70;64.40
10644;DHT22;5370;50.132;8.626;2023-02-01T13:22:34;9.60;64.60
10644;DHT22;5370;50.132;8.626;2023-02-01T13:25:26;9.60;64.60
10644;DHT22;5370;50.132;8.626;2023-02-01T13:27:56;9.60;64.60
10644;DHT22;5370;50.132;8.626;2023-02-01T13:30:36;9.60;64.60
10644;DHT22;5370;50.132;8.626;2023-02-01T13:41:27;9.70;64.20
10644;DHT22;5370;50.132;8.626;2023-02-01T13:43:58;9.80;64.70
10644;DHT22;5370;50.132;8.626;2023-02-01T13:46:25;9.90;65.10
10644;DHT22;5370;50.132;8.626;2023-02-01T13:48:54;9.90;64.80
10644;DHT22;5370;50.132;8.626;2023-02-01T13:51:43;10.00;63.20
10644;DHT22;5370;50.132;8.626;2023-02-01T13:54:29;10.00;62.10
10644;DHT22;5370;50.132;8.626;2023-02-01T13:56:55;10.00;61.80
10644;DHT22;5370;50.132;8.626;2023-02-01T14:02:37;10.10;61.30
10644;DHT22;5370;50.132;8.626;2023-02-01T14:05:03;10.10;61.10
10644;DHT22;5370;50.132;8.626;2023-02-01T14:07:30;10.10;60.80
10644;DHT22;5370;50.132;8.626;2023-02-01T14:09:56;10.10;60.60
10644;DHT22;5370;50.132;8.626;2023-02-01T14:12:44;10.10;60.30
10644;DHT22;5370;50.132;8.626;2023-02-01T14:15:26;10.20;59.90
10644;DHT22;5370;50.132;8.626;2023-02-01T14:17:53;10.20;59.90
10644;DHT22;5370;50.132;8.626;2023-02-01T14:20:41;10.40;59.50
10644;DHT22;5370;50.132;8.626;2023-02-01T14:23:13;10.40;59.10
10644;DHT22;5370;50.132;8.626;2023-02-01T14:25:42;10.50;58.90
10644;DHT22;5370;50.132;8.626;2023-02-01T14:28:21;10.60;58.30
10644;DHT22;5370;50.132;8.626;2023-02-01T14:30:48;10.70;58.10
10644;DHT22;5370;50.132;8.626;2023-02-01T14:33:23;10.80;58.00
10644;DHT22;5370;50.132;8.626;2023-02-01T14:36:06;10.80;57.70
10644;DHT22;5370;50.132;8.626;2023-02-01T14:38:33;10.90;57.60
10644;DHT22;5370;50.132;8.626;2023-02-01T14:41:23;10.90;58.00
10644;DHT22;5370;50.132;8.626;2023-02-01T14:47:06;10.90;57.30
10644;DHT22;5370;50.132;8.626;2023-02-01T14:49:49;10.80;56.80
10644;DHT22;5370;50.132;8.626;2023-02-01T14:52:17;10.70;56.90
10644;DHT22;5370;50.132;8.626;2023-02-01T14:54:48;10.60;56.70
10644;DHT22;5370;50.132;8.626;2023-02-01T14:57:20;10.60;56.60
10644;DHT22;5370;50.132;8.626;2023-02-01T14:59:46;10.60;56.90
10644;DHT22;5370;50.132;8.626;2023-02-01T15:02:23;10.50;56.90
10644;DHT22;5370;50.132;8.626;2023-02-01T15:04:56;10.50;57.00
10644;DHT22;5370;50.132;8.626;2023-02-01T15:07:24;10.40;57.10
10644;DHT22;5370;50.132;8.626;2023-02-01T15:09:51;10.40;57.10
10644;DHT22;5370;50.132;8.626;2023-02-01T15:12:23;10.40;57.00
10644;DHT22;5370;50.132;8.626;2023-02-01T15:17:36;10.40;57.40
10644;DHT22;5370;50.132;8.626;2023-02-01T15:20:18;10.40;57.50
10644;DHT22;5370;50.132;8.626;2023-02-01T15:23:01;10.30;57.50
10644;DHT22;5370;50.132;8.626;2023-02-01T15:25:32;10.30;57.50
10644;DHT22;5370;50.132;8.626;2023-02-01T15:27:58;10.20;57.50
10644;DHT22;5370;50.132;8.626;2023-02-01T15:30:29;10.10;57.60
10644;DHT22;5370;50.132;8.626;2023-02-01T15:33:13;10.10;57.70
10644;DHT22;5370;50.132;8.626;2023-02-01T15:38:20;10.00;57.90
10644;DHT22;5370;50.132;8.626;2023-02-01T15:41:09;10.00;58.00
10644;DHT22;5370;50.132;8.626;2023-02-01T15:46:36;9.80;59.00
10644;DHT22;5370;50.132;8.626;2023-02-01T15:49:02;9.80;59.20
10644;DHT22;5370;50.132;8.626;2023-02-01T15:51:31;9.70;59.40
10644;DHT22;5370;50.132;8.626;2023-02-01T15:56:25;9.60;59.50
10644;DHT22;5370;50.132;8.626;2023-02-01T15:58:55;9.60;59.60
10644;DHT22;5370;50.132;8.626;2023-02-01T16:01:22;9.50;59.80
10644;DHT22;5370;50.132;8.626;2023-02-01T16:03:47;9.50;60.00
10644;DHT22;5370;50.132;8.626;2023-02-01T16:09:03;9.40;60.60
10644;DHT22;5370;50.132;8.626;2023-02-01T16:12:02;9.30;60.90
10644;DHT22;5370;50.132;8.626;2023-02-01T16:14:26;9.30;61.30
10644;DHT22;5370;50.132;8.626;2023-02-01T16:16:54;9.20;61.40
10644;DHT22;5370;50.132;8.626;2023-02-01T16:19:20;9.20;61.60
10644;DHT22;5370;50.132;8.626;2023-02-01T16:21:47;9.20;61.80
10644;DHT22;5370;50.132;8.626;2023-02-01T16:24:13;9.10;61.90
10644;DHT22;5370;50.132;8.626;2023-02-01T16:26:38;9.10;62.10
10644;DHT22;5370;50.132;8.626;2023-02-01T16:29:04;9.10;62.30
10644;DHT22;5370;50.132;8.626;2023-02-01T16:31:34;9.00;62.40
10644;DHT22;5370;50.132;8.626;2023-02-01T16:34:00;9.00;62.60
10644;DHT22;5370;50.132;8.626;2023-02-01T16:36:26;8.90;62.60
10644;DHT22;5370;50.132;8.626;2023-02-01T16:38:53;8.90;62.80
10644;DHT22;5370;50.132;8.626;2023-02-01T16:41:20;8.80;63.00
10644;DHT22;5370;50.132;8.626;2023-02-01T16:43:50;8.80;63.30
10644;DHT22;5370;50.132;8.626;2023-02-01T16:46:19;8.70;63.40
10644;DHT22;5370;50.132;8.626;2023-02-01T16:48:52;8.70;63.10
10644;DHT22;5370;50.132;8.626;2023-02-01T16:51:18;8.60;63.80
10644;DHT22;5370;50.132;8.626;2023-02-01T16:53:45;8.60;63.90
10644;DHT22;5370;50.132;8.626;2023-02-01T16:56:22;8.50;64.00
10644;DHT22;5370;50.132;8.626;2023-02-01T16:58:47;8.50;64.20
10644;DHT22;5370;50.132;8.626;2023-02-01T17:01:16;8.50;64.30
10644;DHT22;5370;50.132;8.626;2023-02-01T17:03:43;8.40;64.30
10644;DHT22;5370;50.132;8.626;2023-02-01T17:06:13;8.40;64.60
10644;DHT22;5370;50.132;8.626;2023-02-01T17:08:41;8.40;64.70
10644;DHT22;5370;50.132;8.626;2023-02-01T17:11:10;8.30;65.00
10644;DHT22;5370;50.132;8.626;2023-02-01T17:13:36;8.30;65.30
10644;DHT22;5370;50.132;8.626;2023-02-01T17:18:50;8.30;65.90
10644;DHT22;5370;50.132;8.626;2023-02-01T17:21:18;8.20;66.30
10644;DHT22;5370;50.132;8.626;2023-02-01T17:23:43;8.20;66.70
10644;DHT22;5370;50.132;8.626;2023-02-01T17:26:10;8.20;66.90
10644;DHT22;5370;50.132;8.626;2023-02-01T17:28:36;8.10;66.90
10644;DHT22;5370;50.132;8.626;2023-02-01T17:31:02;8.20;67.30
10644;DHT22;5370;50.132;8.626;2023-02-01T17:33:31;8.20;67.50
10644;DHT22;5370;50.132;8.626;2023-02-01T17:35:58;8.20;68.00
10644;DHT22;5370;50.132;8.626;2023-02-01T17:38:25;8.20;68.10
10644;DHT22;5370;50.132;8.626;2023-02-01T17:40:51;8.20;68.20
10644;DHT22;5370;50.132;8.626;2023-02-01T17:43:22;8.20;68.40
10644;DHT22;5370;50.132;8.626;2023-02-01T17:45:49;8.10;68.50
10644;DHT22;5370;50.132;8.626;2023-02-01T17:48:21;8.10;68.70
10644;DHT22;5370;50.132;8.626;2023-02-01T17:50:48;8.10;69.00
10644;DHT22;5370;50.132;8.626;2023-02-01T17:53:17;8.10;69.20
10644;DHT22;5370;50.132;8.626;2023-02-01T17:55:45;8.10;69.40
10644;DHT22;5370;50.132;8.626;2023-02-01T17:58:12;8.20;70.00
10644;DHT22;5370;50.132;8.626;2023-02-01T18:00:39;8.20;70.10
10644;DHT22;5370;50.132;8.626;2023-02-01T18:03:05;8.20;70.30
10644;DHT22;5370;50.132;8.626;2023-02-01T18:05:41;8.20;70.50
10644;DHT22;5370;50.132;8.626;2023-02-01T18:08:08;8.20;70.90
10644;DHT22;5370;50.132;8.626;2023-02-01T18:10:35;8.20;71.00
10644;DHT22;5370;50.132;8.626;2023-02-01T18:13:04;8.30;71.20
10644;DHT22;5370;50.132;8.626;2023-02-01T18:15:30;8.20;71.40
10644;DHT22;5370;50.132;8.626;2023-02-01T18:17:56;8.20;71.60
10644;DHT22;5370;50.132;8.626;2023-02-01T18:20:23;8.20;71.80
10644;DHT22;5370;50.132;8.626;2023-02-01T18:22:50;8.20;72.10
10644;DHT22;5370;50.132;8.626;2023-02-01T18:25:23;8.20;72.40
10644;DHT22;5370;50.132;8.626;2023-02-01T18:27:50;8.20;72.60
10644;DHT22;5370;50.132;8.626;2023-02-01T18:30:29;8.10;72.90
10644;DHT22;5370;50.132;8.626;2023-02-01T18:32:57;8.10;73.50
10644;DHT22;5370;50.132;8.626;2023-02-01T18:35:29;8.00;73.60